Time;durP1;ratioP1;P1;durP2;ratioP2;P2;SDS_P1;SDS_P2;PMS_P1;PMS_P2;Temp;Humidity;BMP_temperature;BMP_pressure;BME280_temperature;BME280_humidity;BME280_pressure;Samples;Min_cycle;Max_cycle;Signal;HPM_P1;HPM_P2
2022/03/22 00:00:04;;;;;;;22.75;6.38;;;;;;;;;;5069895;28;20286;-71
2022/03/22 00:02:32;;;;;;;23.70;6.50;;;;;;;;;;5069645;28;20607;-71
2022/03/22 00:05:02;;;;;;;23.38;7.85;;;;;;;;;;5069446;28;20231;-71
2022/03/22 00:07:29;;;;;;;22.30;6.97;;;;;;;;;;5069853;28;20225;-71
2022/03/22 00:09:57;;;;;;;21.83;6.93;;;;;;;;;;5070102;28;20219;-71
2022/03/22 00:12:24;;;;;;;22.83;6.35;;;;;;;;;;5073197;28;20681;-70
2022/03/22 00:14:52;;;;;;;21.88;5.82;;;;;;;;;;5073142;28;20778;-71
2022/03/22 00:17:20;;;;;;;24.05;7.10;;;;;;;;;;5072920;28;20226;-71
2022/03/22 00:19:48;;;;;;;25.02;7.40;;;;;;;;;;5073139;28;20210;-71
2022/03/22 00:22:18;;;;;;;28.08;7.60;;;;;;;;;;5073068;28;20731;-70
2022/03/22 00:24:46;;;;;;;23.40;6.97;;;;;;;;;;5073108;28;20214;-70
2022/03/22 00:27:13;;;;;;;33.63;12.20;;;;;;;;;;5072786;28;20241;-70
2022/03/22 00:29:41;;;;;;;34.38;9.88;;;;;;;;;;5072864;28;20210;-70
2022/03/22 00:32:09;;;;;;;26.33;9.20;;;;;;;;;;5073104;28;20217;-71
2022/03/22 00:34:44;;;;;;;27.92;7.85;;;;;;;;;;5072904;28;20718;-70
2022/03/22 00:37:13;;;;;;;22.58;6.65;;;;;;;;;;5072686;28;20213;-70
2022/03/22 00:39:43;;;;;;;23.08;8.00;;;;;;;;;;5072816;28;20206;-70
2022/03/22 00:42:10;;;;;;;23.60;8.02;;;;;;;;;;5072593;28;20209;-70
2022/03/22 00:44:38;;;;;;;27.15;8.52;;;;;;;;;;5072894;28;20452;-71
2022/03/22 00:47:06;;;;;;;28.50;7.80;;;;;;;;;;5072265;28;20283;-70
2022/03/22 00:49:34;;;;;;;23.17;7.50;;;;;;;;;;5072709;28;20266;-71
2022/03/22 00:52:04;;;;;;;25.73;8.10;;;;;;;;;;5072849;28;20211;-71
2022/03/22 00:54:31;;;;;;;24.20;7.53;;;;;;;;;;5072403;28;20210;-71
2022/03/22 00:57:01;;;;;;;25.55;9.05;;;;;;;;;;5072492;28;20213;-75
2022/03/22 01:02:13;;;;;;;29.50;8.55;;;;;;;;;;5072439;28;20224;-70
2022/03/22 01:04:43;;;;;;;27.10;9.52;;;;;;;;;;5072259;28;20206;-69
2022/03/22 01:07:10;;;;;;;27.13;10.60;;;;;;;;;;5071875;28;20283;-70
2022/03/22 01:09:37;;;;;;;32.45;12.55;;;;;;;;;;5072231;28;20210;-71
2022/03/22 01:12:07;;;;;;;28.88;10.50;;;;;;;;;;5072062;28;20233;-70
2022/03/22 01:14:35;;;;;;;32.70;11.35;;;;;;;;;;5072227;28;20558;-70
2022/03/22 01:17:03;;;;;;;31.55;12.15;;;;;;;;;;5072058;28;20234;-71
2022/03/22 01:19:30;;;;;;;34.78;10.23;;;;;;;;;;5071894;28;20207;-71
2022/03/22 01:21:58;;;;;;;34.13;11.38;;;;;;;;;;5070824;28;20220;-71
2022/03/22 01:24:26;;;;;;;28.58;10.15;;;;;;;;;;5071914;28;20208;-70
2022/03/22 01:26:54;;;;;;;28.52;10.73;;;;;;;;;;5071980;28;20233;-71
2022/03/22 01:29:23;;;;;;;32.50;9.88;;;;;;;;;;5071618;28;20202;-71
2022/03/22 01:31:51;;;;;;;34.08;9.98;;;;;;;;;;5071901;28;20675;-70
2022/03/22 01:34:18;;;;;;;25.42;8.25;;;;;;;;;;5071447;28;20209;-71
2022/03/22 01:36:46;;;;;;;29.77;10.15;;;;;;;;;;5071808;28;20217;-70
2022/03/22 01:39:13;;;;;;;27.63;9.55;;;;;;;;;;5071350;28;20203;-71
2022/03/22 01:41:40;;;;;;;32.00;10.23;;;;;;;;;;5071446;28;20201;-71
2022/03/22 01:44:08;;;;;;;26.65;8.65;;;;;;;;;;5071503;28;20225;-71
2022/03/22 01:46:38;;;;;;;30.02;10.05;;;;;;;;;;5071285;28;20233;-70
2022/03/22 01:49:05;;;;;;;34.90;10.48;;;;;;;;;;5071169;28;20713;-70
2022/03/22 01:51:33;;;;;;;32.25;9.77;;;;;;;;;;5071717;28;20213;-71
2022/03/22 01:54:01;;;;;;;31.83;10.20;;;;;;;;;;5064829;28;20208;-70
2022/03/22 01:56:28;;;;;;;29.67;9.45;;;;;;;;;;5071481;28;20204;-71
2022/03/22 01:58:56;;;;;;;25.88;8.15;;;;;;;;;;5071168;28;20678;-70
2022/03/22 02:06:58;;;;;;;29.38;8.82;;;;;;;;;;5065451;28;20245;-71
2022/03/22 02:09:26;;;;;;;26.40;9.20;;;;;;;;;;5070948;28;20205;-70
2022/03/22 02:11:53;;;;;;;35.03;10.18;;;;;;;;;;5070934;28;20292;-70
2022/03/22 02:14:20;;;;;;;32.83;9.30;;;;;;;;;;5071067;28;20219;-70
2022/03/22 02:16:48;;;;;;;26.98;9.30;;;;;;;;;;5070826;28;20210;-71
2022/03/22 02:19:18;;;;;;;28.27;9.25;;;;;;;;;;5070670;28;20212;-70
2022/03/22 02:21:46;;;;;;;35.22;10.43;;;;;;;;;;5071177;28;20576;-70
2022/03/22 02:24:15;;;;;;;27.77;8.65;;;;;;;;;;5070679;28;20218;-70
2022/03/22 02:26:42;;;;;;;26.25;9.20;;;;;;;;;;5071044;28;20232;-71
2022/03/22 02:29:10;;;;;;;33.25;10.07;;;;;;;;;;5070637;28;20231;-70
2022/03/22 02:31:38;;;;;;;26.75;8.50;;;;;;;;;;5070874;28;20218;-72
2022/03/22 02:34:05;;;;;;;34.00;8.88;;;;;;;;;;5070368;28;20292;-70
2022/03/22 02:36:35;;;;;;;27.10;8.75;;;;;;;;;;5070686;28;20243;-71
2022/03/22 02:39:02;;;;;;;21.80;8.30;;;;;;;;;;5070384;28;20310;-70
2022/03/22 02:41:32;;;;;;;28.33;9.77;;;;;;;;;;5070703;28;20220;-71
2022/03/22 02:43:59;;;;;;;24.00;8.18;;;;;;;;;;5070757;28;20238;-71
2022/03/22 02:46:26;;;;;;;29.85;9.57;;;;;;;;;;5070558;28;20209;-70
2022/03/22 02:48:54;;;;;;;27.98;9.07;;;;;;;;;;5070470;28;20235;-70
2022/03/22 02:51:22;;;;;;;29.75;9.77;;;;;;;;;;5070386;28;20214;-70
2022/03/22 02:53:49;;;;;;;28.75;9.73;;;;;;;;;;5070472;28;20219;-71
2022/03/22 02:56:17;;;;;;;31.65;9.68;;;;;;;;;;5070572;28;20204;-70
2022/03/22 02:58:46;;;;;;;30.35;9.45;;;;;;;;;;5070349;28;20213;-70
2022/03/22 03:01:13;;;;;;;33.60;10.45;;;;;;;;;;5070130;28;20208;-70
2022/03/22 03:03:40;;;;;;;29.13;9.50;;;;;;;;;;5070229;28;20604;-70
2022/03/22 03:06:08;;;;;;;30.35;9.20;;;;;;;;;;5070430;28;20232;-71
2022/03/22 03:08:35;;;;;;;33.88;9.50;;;;;;;;;;5070384;28;20251;-70
2022/03/22 03:11:05;;;;;;;24.30;7.90;;;;;;;;;;5070217;28;20235;-71
2022/03/22 03:16:14;;;;;;;37.15;7.55;;;;;;;;;;5065130;28;20313;-70
2022/03/22 03:18:42;;;;;;;34.80;9.75;;;;;;;;;;5070077;28;20588;-71
2022/03/22 03:21:09;;;;;;;28.63;8.60;;;;;;;;;;5070160;28;20632;-70
2022/03/22 03:23:37;;;;;;;24.67;8.02;;;;;;;;;;5070419;28;20254;-70
2022/03/22 03:26:05;;;;;;;25.85;8.70;;;;;;;;;;5070196;28;20542;-70
2022/03/22 03:28:32;;;;;;;27.52;7.75;;;;;;;;;;5069877;28;20228;-71
2022/03/22 03:30:59;;;;;;;30.13;7.75;;;;;;;;;;5069787;28;20618;-71
2022/03/22 03:33:28;;;;;;;27.73;8.40;;;;;;;;;;5070228;28;20216;-70
2022/03/22 03:35:56;;;;;;;27.38;9.48;;;;;;;;;;5070206;28;20209;-70
2022/03/22 03:38:23;;;;;;;30.05;9.43;;;;;;;;;;5070180;28;20212;-70
2022/03/22 03:43:51;;;;;;;25.02;7.80;;;;;;;;;;5005711;28;20272;-70
2022/03/22 03:49:06;;;;;;;24.48;7.28;;;;;;;;;;5047081;28;20317;-70
2022/03/22 03:51:33;;;;;;;30.88;9.75;;;;;;;;;;5073675;28;20204;-70
2022/03/22 03:54:01;;;;;;;31.92;9.35;;;;;;;;;;5073965;28;20312;-70
2022/03/22 03:56:28;;;;;;;30.23;8.90;;;;;;;;;;5073830;28;20287;-70
2022/03/22 03:58:57;;;;;;;28.85;9.23;;;;;;;;;;5073500;28;20208;-70
2022/03/22 04:01:25;;;;;;;24.60;7.05;;;;;;;;;;5073584;28;20679;-70
2022/03/22 04:03:52;;;;;;;26.88;8.65;;;;;;;;;;5073519;28;20239;-70
2022/03/22 04:06:21;;;;;;;23.35;6.82;;;;;;;;;;5073521;28;20236;-70
2022/03/22 04:08:48;;;;;;;26.70;8.10;;;;;;;;;;5073540;28;20232;-70
2022/03/22 04:11:16;;;;;;;26.85;8.68;;;;;;;;;;5073243;28;20204;-70
2022/03/22 04:13:45;;;;;;;27.88;8.55;;;;;;;;;;5073253;28;20712;-70
2022/03/22 04:16:13;;;;;;;28.70;8.02;;;;;;;;;;5073255;28;20247;-71
2022/03/22 04:18:41;;;;;;;28.65;8.50;;;;;;;;;;5073439;28;20219;-70
2022/03/22 04:21:08;;;;;;;24.42;9.13;;;;;;;;;;5072911;28;20216;-70
2022/03/22 04:23:37;;;;;;;28.27;8.63;;;;;;;;;;5073189;28;20215;-70
2022/03/22 04:26:04;;;;;;;29.98;8.77;;;;;;;;;;5066817;28;20208;-70
2022/03/22 04:34:02;;;;;;;28.60;9.07;;;;;;;;;;5072995;28;20215;-70
2022/03/22 04:36:30;;;;;;;25.13;8.40;;;;;;;;;;5073102;28;20204;-70
2022/03/22 04:38:59;;;;;;;27.40;8.77;;;;;;;;;;5072833;28;20269;-72
2022/03/22 04:41:26;;;;;;;29.08;8.65;;;;;;;;;;5066338;28;20631;-71
2022/03/22 04:43:53;;;;;;;26.75;8.80;;;;;;;;;;5072631;28;20204;-71
2022/03/22 04:46:22;;;;;;;24.85;7.68;;;;;;;;;;5072941;28;20200;-71
2022/03/22 04:48:50;;;;;;;28.42;8.68;;;;;;;;;;5072661;28;20586;-70
2022/03/22 04:56:49;;;;;;;25.08;7.78;;;;;;;;;;5066013;28;20222;-71
2022/03/22 04:59:19;;;;;;;27.75;9.63;;;;;;;;;;5072189;28;20205;-70
2022/03/22 05:01:48;;;;;;;45.47;15.88;;;;;;;;;;5072547;28;20212;-70
2022/03/22 05:04:15;;;;;;;569.85;212.73;;;;;;;;;;5072438;28;20204;-70
2022/03/22 05:06:43;;;;;;;274.80;85.72;;;;;;;;;;5071900;28;20247;-71
2022/03/22 05:09:11;;;;;;;60.72;18.77;;;;;;;;;;5071948;28;20721;-71
2022/03/22 05:11:39;;;;;;;61.40;21.15;;;;;;;;;;5072172;28;20205;-71
2022/03/22 05:14:08;;;;;;;60.30;21.33;;;;;;;;;;5072192;28;20226;-67
2022/03/22 05:16:36;;;;;;;33.83;12.70;;;;;;;;;;5072126;28;20831;-69
2022/03/22 05:19:05;;;;;;;53.70;19.87;;;;;;;;;;5071926;28;20449;-70
2022/03/22 05:21:33;;;;;;;37.27;14.47;;;;;;;;;;5071974;28;21073;-70
2022/03/22 05:24:00;;;;;;;29.40;10.50;;;;;;;;;;5071922;28;20449;-69
2022/03/22 05:26:29;;;;;;;36.10;13.70;;;;;;;;;;5071827;28;21132;-72
2022/03/22 05:28:57;;;;;;;30.90;11.87;;;;;;;;;;5071828;28;20480;-70
2022/03/22 05:31:24;;;;;;;38.13;15.00;;;;;;;;;;5071832;28;20465;-70
2022/03/22 05:33:52;;;;;;;30.17;12.00;;;;;;;;;;5071612;28;20463;-70
2022/03/22 05:36:21;;;;;;;31.20;11.87;;;;;;;;;;5071737;28;20981;-70
2022/03/22 05:38:48;;;;;;;25.53;9.50;;;;;;;;;;5071748;28;20544;-71
2022/03/22 05:41:16;;;;;;;25.57;10.17;;;;;;;;;;5071407;28;20452;-70
2022/03/22 05:43:44;;;;;;;31.43;11.43;;;;;;;;;;5071559;28;20451;-70
2022/03/22 05:46:12;;;;;;;28.07;10.67;;;;;;;;;;5071351;28;20455;-70
2022/03/22 05:48:39;;;;;;;28.57;11.80;;;;;;;;;;5071681;28;20511;-71
2022/03/22 05:51:07;;;;;;;34.57;15.60;;;;;;;;;;5071070;28;20962;-72
2022/03/22 05:53:35;;;;;;;30.00;12.77;;;;;;;;;;5071324;28;20458;-70
2022/03/22 05:56:03;;;;;;;30.43;11.70;;;;;;;;;;5071244;28;20460;-70
2022/03/22 05:58:30;;;;;;;32.20;11.07;;;;;;;;;;5071295;28;20518;-71
2022/03/22 06:01:00;;;;;;;26.13;10.20;;;;;;;;;;5071198;28;20454;-70
2022/03/22 06:03:27;;;;;;;26.60;9.97;;;;;;;;;;5064940;28;20883;-70
2022/03/22 06:05:55;;;;;;;32.27;12.07;;;;;;;;;;5071123;28;20483;-71
2022/03/22 06:08:22;;;;;;;30.97;11.87;;;;;;;;;;5070492;28;21004;-70
2022/03/22 06:10:51;;;;;;;24.07;9.60;;;;;;;;;;5071141;28;20448;-71
2022/03/22 06:13:18;;;;;;;33.37;10.60;;;;;;;;;;5070604;28;20866;-71
2022/03/22 06:15:46;;;;;;;25.73;10.60;;;;;;;;;;5071153;28;20441;-71
2022/03/22 06:18:15;;;;;;;29.07;10.07;;;;;;;;;;5070850;28;20465;-71
2022/03/22 06:20:44;;;;;;;30.60;13.43;;;;;;;;;;5070988;28;20465;-71
2022/03/22 06:23:12;;;;;;;29.03;10.40;;;;;;;;;;5070565;28;20442;-71
2022/03/22 06:25:40;;;;;;;26.93;10.73;;;;;;;;;;5070821;28;20444;-71
2022/03/22 06:28:10;;;;;;;24.10;10.50;;;;;;;;;;5070671;28;20997;-71
2022/03/22 06:30:38;;;;;;;33.50;11.47;;;;;;;;;;5071039;28;20447;-71
2022/03/22 06:33:09;;;;;;;26.07;10.77;;;;;;;;;;5070573;28;20447;-71
2022/03/22 06:35:38;;;;;;;25.70;10.73;;;;;;;;;;5070794;28;20454;-71
2022/03/22 06:38:06;;;;;;;31.33;11.23;;;;;;;;;;5070823;28;20454;-71
2022/03/22 06:40:35;;;;;;;31.83;10.97;;;;;;;;;;5070490;28;20801;-71
2022/03/22 06:43:03;;;;;;;27.30;10.70;;;;;;;;;;5070258;28;20451;-71
2022/03/22 06:45:31;;;;;;;25.90;10.67;;;;;;;;;;5070824;28;20434;-71
2022/03/22 06:47:58;;;;;;;25.30;9.67;;;;;;;;;;5070396;28;20944;-71
2022/03/22 06:50:26;;;;;;;29.60;11.20;;;;;;;;;;5070646;28;20439;-71
2022/03/22 06:52:55;;;;;;;25.47;10.53;;;;;;;;;;5070392;28;20537;-71
2022/03/22 06:55:23;;;;;;;26.47;10.53;;;;;;;;;;5070140;28;20986;-70
2022/03/22 06:57:52;;;;;;;26.07;10.00;;;;;;;;;;5070532;28;20443;-70
2022/03/22 07:00:20;;;;;;;26.90;11.50;;;;;;;;;;5070684;28;20534;-71
2022/03/22 07:02:50;;;;;;;22.67;9.80;;;;;;;;;;5070437;28;20459;-71
2022/03/22 07:05:17;;;;;;;25.87;10.83;;;;;;;;;;5070137;28;20505;-71
2022/03/22 07:07:45;;;;;;;22.77;9.17;;;;;;;;;;5070620;28;20541;-71
2022/03/22 07:10:15;;;;;;;32.83;11.50;;;;;;;;;;5070164;28;20491;-71
2022/03/22 07:12:51;;;;;;;25.87;11.57;;;;;;;;;;5070205;28;20472;-71
2022/03/22 07:15:23;;;;;;;24.93;9.60;;;;;;;;;;5064525;28;21314;-71
2022/03/22 07:17:54;;;;;;;29.27;12.73;;;;;;;;;;5070146;28;20823;-71
2022/03/22 07:20:21;;;;;;;28.10;10.80;;;;;;;;;;5066730;28;20448;-70
2022/03/22 07:22:49;;;;;;;22.73;8.60;;;;;;;;;;5074340;28;20490;-71
2022/03/22 07:25:18;;;;;;;26.10;9.73;;;;;;;;;;5074229;28;20883;-71
2022/03/22 07:27:45;;;;;;;29.03;9.20;;;;;;;;;;5074205;28;20458;-71
2022/03/22 07:30:14;;;;;;;21.13;9.30;;;;;;;;;;5074105;28;20479;-71
2022/03/22 07:32:42;;;;;;;25.13;9.70;;;;;;;;;;5074108;28;20449;-71
2022/03/22 07:35:12;;;;;;;32.27;10.60;;;;;;;;;;5073845;28;21038;-71
2022/03/22 07:37:40;;;;;;;29.20;10.77;;;;;;;;;;5074102;28;20515;-71
2022/03/22 07:40:08;;;;;;;35.40;10.83;;;;;;;;;;5073980;28;20938;-71
2022/03/22 07:42:38;;;;;;;22.53;10.10;;;;;;;;;;5073964;28;20443;-72
2022/03/22 07:45:06;;;;;;;27.37;11.37;;;;;;;;;;5067132;28;20873;-70
2022/03/22 07:47:34;;;;;;;26.27;10.67;;;;;;;;;;5074005;28;20455;-71
2022/03/22 07:53:01;;;;;;;30.53;10.60;;;;;;;;;;5067435;28;20441;-71
2022/03/22 07:55:29;;;;;;;24.63;10.37;;;;;;;;;;5073555;28;20534;-71
2022/03/22 07:57:58;;;;;;;26.27;10.37;;;;;;;;;;5073525;28;20450;-71
2022/03/22 08:00:26;;;;;;;32.30;11.23;;;;;;;;;;5066889;28;20886;-70
2022/03/22 08:02:54;;;;;;;25.53;9.43;;;;;;;;;;5073703;28;20539;-71
2022/03/22 08:05:21;;;;;;;28.83;10.50;;;;;;;;;;5073251;28;21012;-71
2022/03/22 08:07:51;;;;;;;24.03;9.77;;;;;;;;;;5073351;28;20454;-71
2022/03/22 08:10:19;;;;;;;27.60;10.17;;;;;;;;;;5073236;28;20505;-71
2022/03/22 08:12:46;;;;;;;28.57;9.53;;;;;;;;;;5073231;28;20476;-70
2022/03/22 08:15:15;;;;;;;31.37;10.77;;;;;;;;;;5072994;28;20454;-71
2022/03/22 08:17:43;;;;;;;24.47;8.10;;;;;;;;;;5073201;28;20448;-70
2022/03/22 08:20:12;;;;;;;24.87;7.83;;;;;;;;;;5073078;28;20475;-70
2022/03/22 08:22:50;;;;;;;23.83;8.07;;;;;;;;;;5066501;28;20533;-71
2022/03/22 08:25:19;;;;;;;22.20;5.67;;;;;;;;;;5067394;28;20442;-71
2022/03/22 08:27:47;;;;;;;21.47;4.80;;;;;;;;;;5066644;28;20443;-70
2022/03/22 08:30:18;;;;;;;24.03;6.10;;;;;;;;;;5072906;28;20490;-70
2022/03/22 08:32:45;;;;;;;23.83;4.43;;;;;;;;;;5072318;28;20443;-70
2022/03/22 08:35:13;;;;;;;21.87;6.03;;;;;;;;;;5072899;28;20562;-70
2022/03/22 08:37:40;;;;;;;22.33;4.83;;;;;;;;;;5073093;28;20447;-70
2022/03/22 08:40:09;;;;;;;24.13;7.10;;;;;;;;;;5072927;28;20447;-70
2022/03/22 08:42:38;;;;;;;21.13;6.20;;;;;;;;;;5072972;28;20512;-70
2022/03/22 08:45:07;;;;;;;28.93;6.63;;;;;;;;;;5072509;28;20447;-71
2022/03/22 08:47:36;;;;;;;26.43;6.90;;;;;;;;;;5072772;28;20451;-70
2022/03/22 08:50:05;;;;;;;20.60;4.80;;;;;;;;;;5072840;28;20489;-70
2022/03/22 08:52:32;;;;;;;26.80;8.70;;;;;;;;;;5066450;28;20479;-70
2022/03/22 08:55:00;;;;;;;17.97;4.90;;;;;;;;;;5072362;28;20447;-70
2022/03/22 08:57:27;;;;;;;25.30;6.13;;;;;;;;;;5072493;28;20455;-70
2022/03/22 08:59:58;;;;;;;18.40;6.03;;;;;;;;;;5072439;28;20978;-70
2022/03/22 09:02:25;;;;;;;23.67;5.90;;;;;;;;;;5072371;28;20463;-70
2022/03/22 09:07:50;;;;;;;20.07;5.83;;;;;;;;;;5010399;28;20513;-70
2022/03/22 09:10:18;;;;;;;18.57;3.87;;;;;;;;;;5057271;28;20573;-72
2022/03/22 09:12:46;;;;;;;21.60;5.33;;;;;;;;;;5072027;28;20459;-70
2022/03/22 09:15:15;;;;;;;18.33;5.53;;;;;;;;;;5072296;28;20550;-71
2022/03/22 09:17:42;;;;;;;19.17;4.80;;;;;;;;;;5072168;28;20451;-70
2022/03/22 09:20:13;;;;;;;20.97;4.83;;;;;;;;;;5072300;28;20922;-71
2022/03/22 09:22:40;;;;;;;21.80;4.80;;;;;;;;;;5072134;28;20807;-71
2022/03/22 09:25:08;;;;;;;27.77;7.13;;;;;;;;;;5071697;28;20451;-70
2022/03/22 09:27:36;;;;;;;20.97;5.80;;;;;;;;;;5071969;28;20450;-70
2022/03/22 09:30:03;;;;;;;18.80;4.97;;;;;;;;;;5071774;28;20490;-71
2022/03/22 09:32:31;;;;;;;21.30;5.13;;;;;;;;;;5071991;28;20812;-70
2022/03/22 09:34:59;;;;;;;20.37;4.23;;;;;;;;;;5071651;28;20447;-73
2022/03/22 09:37:28;;;;;;;18.93;5.07;;;;;;;;;;5071630;28;20450;-70
2022/03/22 09:39:57;;;;;;;25.07;5.10;;;;;;;;;;5071654;28;21037;-71
2022/03/22 09:42:24;;;;;;;17.83;4.80;;;;;;;;;;5071628;28;20436;-71
2022/03/22 09:44:52;;;;;;;21.27;4.27;;;;;;;;;;5071095;28;20450;-70
2022/03/22 09:47:20;;;;;;;14.37;2.97;;;;;;;;;;5071282;28;20443;-71
2022/03/22 09:49:49;;;;;;;27.10;4.07;;;;;;;;;;5064863;28;20489;-70
2022/03/22 09:52:17;;;;;;;17.37;4.40;;;;;;;;;;5071289;28;20459;-70
2022/03/22 09:54:46;;;;;;;17.63;3.00;;;;;;;;;;5071507;28;20963;-71
2022/03/22 09:57:14;;;;;;;26.77;4.83;;;;;;;;;;5071107;28;20487;-70
2022/03/22 09:59:41;;;;;;;19.97;6.27;;;;;;;;;;5071403;28;20446;-70
2022/03/22 10:02:09;;;;;;;18.37;4.70;;;;;;;;;;5071317;28;20450;-70
2022/03/22 10:04:38;;;;;;;24.00;4.37;;;;;;;;;;5071176;28;20455;-70
2022/03/22 10:07:07;;;;;;;17.30;4.40;;;;;;;;;;5071189;28;20451;-70
2022/03/22 10:09:36;;;;;;;18.13;4.30;;;;;;;;;;5071141;28;20486;-70
2022/03/22 10:12:07;;;;;;;17.97;3.80;;;;;;;;;;5071191;28;20440;-70
2022/03/22 10:14:36;;;;;;;17.00;3.20;;;;;;;;;;5064586;28;20939;-70
2022/03/22 10:17:09;;;;;;;16.27;3.53;;;;;;;;;;5070641;28;20455;-70
2022/03/22 10:19:42;;;;;;;20.20;3.67;;;;;;;;;;5071124;28;20458;-70
2022/03/22 10:22:11;;;;;;;16.40;4.10;;;;;;;;;;5070807;28;20443;-70
2022/03/22 10:24:45;;;;;;;18.90;4.07;;;;;;;;;;5070787;28;20451;-70
2022/03/22 10:27:24;;;;;;;17.20;3.63;;;;;;;;;;5070807;28;20451;-70
2022/03/22 10:29:51;;;;;;;20.73;4.03;;;;;;;;;;5071150;28;20873;-70
2022/03/22 10:32:19;;;;;;;21.90;4.37;;;;;;;;;;5070696;28;20451;-70
2022/03/22 10:34:47;;;;;;;23.97;4.63;;;;;;;;;;5070810;28;20473;-70
2022/03/22 10:37:26;;;;;;;17.83;3.60;;;;;;;;;;5070463;28;20474;-70
2022/03/22 10:39:53;;;;;;;22.73;4.23;;;;;;;;;;5070555;28;20999;-71
2022/03/22 10:42:24;;;;;;;18.87;3.67;;;;;;;;;;5070883;28;20829;-70
2022/03/22 10:44:52;;;;;;;24.13;4.47;;;;;;;;;;5070847;28;20526;-70
2022/03/22 10:47:26;;;;;;;23.67;4.93;;;;;;;;;;5070478;28;20443;-71
2022/03/22 10:50:01;;;;;;;18.93;4.17;;;;;;;;;;5070635;28;20536;-70
2022/03/22 10:52:31;;;;;;;17.57;3.93;;;;;;;;;;5070399;28;20993;-70
2022/03/22 10:54:59;;;;;;;41.73;4.70;;;;;;;;;;5070344;28;20459;-70
2022/03/22 10:57:32;;;;;;;30.23;4.73;;;;;;;;;;5070618;28;21172;-71
2022/03/22 11:00:03;;;;;;;17.40;4.30;;;;;;;;;;5070597;28;20458;-71
2022/03/22 11:02:34;;;;;;;24.90;5.53;;;;;;;;;;5070598;28;20443;-70
2022/03/22 11:05:03;;;;;;;28.37;6.10;;;;;;;;;;5063802;28;20475;-70
2022/03/22 11:07:33;;;;;;;21.70;4.17;;;;;;;;;;5070626;28;20438;-70
2022/03/22 11:10:00;;;;;;;18.77;5.60;;;;;;;;;;5070243;28;20945;-70
2022/03/22 11:12:28;;;;;;;21.67;5.37;;;;;;;;;;5070358;28;20471;-70
2022/03/22 11:14:56;;;;;;;22.00;5.00;;;;;;;;;;5070362;28;20499;-71
2022/03/22 11:17:26;;;;;;;21.37;4.80;;;;;;;;;;5070123;28;20459;-71
2022/03/22 11:19:54;;;;;;;22.37;5.30;;;;;;;;;;5070495;28;20458;-69
2022/03/22 11:22:21;;;;;;;39.83;4.83;;;;;;;;;;5070156;28;20451;-70
2022/03/22 11:24:49;;;;;;;29.60;5.80;;;;;;;;;;5070165;28;20455;-70
2022/03/22 11:27:17;;;;;;;21.00;5.97;;;;;;;;;;5069956;28;20451;-69
2022/03/22 11:29:45;;;;;;;21.27;4.97;;;;;;;;;;5063374;28;20589;-70
2022/03/22 11:35:00;;;;;;;24.23;5.80;;;;;;;;;;5064278;28;20438;-70
2022/03/22 11:37:31;;;;;;;26.83;6.07;;;;;;;;;;5063782;28;20446;-69
2022/03/22 11:42:52;;;;;;;46.97;5.60;;;;;;;;;;5064769;28;20487;-70
2022/03/22 11:45:20;;;;;;;29.40;6.40;;;;;;;;;;5069737;28;20507;-70
2022/03/22 11:47:49;;;;;;;47.23;6.10;;;;;;;;;;5070121;28;20447;-69
2022/03/22 11:50:20;;;;;;;30.17;5.53;;;;;;;;;;5063464;28;20487;-70
2022/03/22 11:52:48;;;;;;;33.57;5.90;;;;;;;;;;5063336;28;20439;-70
2022/03/22 11:55:17;;;;;;;20.30;4.13;;;;;;;;;;5069642;28;20812;-70
2022/03/22 11:57:46;;;;;;;31.03;4.63;;;;;;;;;;5070039;28;20470;-70
2022/03/22 12:00:14;;;;;;;25.03;5.13;;;;;;;;;;5070168;28;20457;-70
2022/03/22 12:02:43;;;;;;;23.50;5.47;;;;;;;;;;5070235;28;20439;-70
2022/03/22 12:05:10;;;;;;;32.03;5.40;;;;;;;;;;5069608;28;20482;-70
2022/03/22 12:07:41;;;;;;;34.63;4.80;;;;;;;;;;5072448;28;20449;-69
2022/03/22 12:10:11;;;;;;;24.77;4.10;;;;;;;;;;5073548;28;20510;-71
2022/03/22 12:12:39;;;;;;;29.13;5.90;;;;;;;;;;5073460;28;20482;-69
2022/03/22 12:15:07;;;;;;;30.13;4.90;;;;;;;;;;5073128;28;20450;-70
2022/03/22 12:17:36;;;;;;;49.23;4.73;;;;;;;;;;5073687;28;20457;-70
2022/03/22 12:20:04;;;;;;;39.40;6.80;;;;;;;;;;5073349;28;20451;-70
2022/03/22 12:22:32;;;;;;;28.37;5.33;;;;;;;;;;5073346;28;20893;-71
2022/03/22 12:25:01;;;;;;;29.13;4.87;;;;;;;;;;5073255;28;20465;-71
2022/03/22 12:27:29;;;;;;;26.20;4.80;;;;;;;;;;5073082;28;20447;-71
2022/03/22 12:29:58;;;;;;;22.97;4.50;;;;;;;;;;5073096;28;20505;-68
2022/03/22 12:32:27;;;;;;;36.87;5.20;;;;;;;;;;5072911;28;20450;-70
2022/03/22 12:34:57;;;;;;;33.53;5.60;;;;;;;;;;5073221;28;20439;-70
2022/03/22 12:37:24;;;;;;;18.30;3.40;;;;;;;;;;5072884;28;20832;-70
2022/03/22 12:39:52;;;;;;;25.57;4.50;;;;;;;;;;5072972;28;20447;-70
2022/03/22 12:42:22;;;;;;;38.33;5.30;;;;;;;;;;5072859;28;20451;-70
2022/03/22 12:44:49;;;;;;;19.20;3.37;;;;;;;;;;5072689;28;20461;-70
2022/03/22 12:47:19;;;;;;;22.30;3.77;;;;;;;;;;5073041;28;20545;-70
2022/03/22 12:49:48;;;;;;;27.00;4.30;;;;;;;;;;5073045;28;20435;-69
2022/03/22 12:52:15;;;;;;;25.30;3.83;;;;;;;;;;5072618;28;20979;-70
2022/03/22 12:54:44;;;;;;;16.50;3.07;;;;;;;;;;5072694;28;20447;-71
2022/03/22 12:57:12;;;;;;;23.30;4.10;;;;;;;;;;5072337;28;20538;-70
2022/03/22 12:59:42;;;;;;;18.10;2.53;;;;;;;;;;5072388;28;20443;-71
2022/03/22 13:02:10;;;;;;;20.80;2.63;;;;;;;;;;5072568;28;20450;-71
2022/03/22 13:04:46;;;;;;;24.93;2.20;;;;;;;;;;5072528;28;20471;-70
2022/03/22 13:07:13;;;;;;;18.30;3.47;;;;;;;;;;5026468;28;20448;-70
2022/03/22 13:12:26;;;;;;;24.43;2.77;;;;;;;;;;5027098;28;20510;-70
2022/03/22 13:15:01;;;;;;;22.60;3.70;;;;;;;;;;5032280;28;20463;-70
2022/03/22 13:17:30;;;;;;;23.47;2.63;;;;;;;;;;5032490;28;20448;-70
2022/03/22 13:19:59;;;;;;;22.90;1.93;;;;;;;;;;5032277;28;20534;-70
2022/03/22 13:22:27;;;;;;;23.00;2.77;;;;;;;;;;5032191;28;20440;-71
2022/03/22 13:25:07;;;;;;;24.43;2.93;;;;;;;;;;5032379;28;20451;-70
2022/03/22 13:27:35;;;;;;;18.40;2.17;;;;;;;;;;5032171;28;20843;-70
2022/03/22 13:30:05;;;;;;;15.40;2.23;;;;;;;;;;5031957;28;20965;-70
2022/03/22 13:32:34;;;;;;;19.03;5.20;;;;;;;;;;5032129;28;20440;-67
2022/03/22 13:35:04;;;;;;;25.03;3.20;;;;;;;;;;5031590;28;20944;-70
2022/03/22 13:37:43;;;;;;;14.43;2.20;;;;;;;;;;5031921;28;20973;-70
2022/03/22 13:40:11;;;;;;;16.33;2.90;;;;;;;;;;5031994;28;20911;-70
2022/03/22 13:42:38;;;;;;;19.17;2.43;;;;;;;;;;5031920;28;20531;-70
2022/03/22 13:45:09;;;;;;;22.23;3.63;;;;;;;;;;5031457;28;20982;-70
2022/03/22 13:47:38;;;;;;;33.37;3.77;;;;;;;;;;5031673;28;20473;-70
2022/03/22 13:50:12;;;;;;;17.80;2.50;;;;;;;;;;5031759;28;20453;-71
2022/03/22 13:52:40;;;;;;;16.03;2.60;;;;;;;;;;5031571;28;20444;-71
2022/03/22 13:55:14;;;;;;;13.80;2.17;;;;;;;;;;5031533;28;20449;-70
2022/03/22 13:57:42;;;;;;;23.47;2.90;;;;;;;;;;5031409;28;20448;-70
2022/03/22 14:00:12;;;;;;;19.50;2.30;;;;;;;;;;5031391;28;20511;-71
2022/03/22 14:02:40;;;;;;;23.50;2.33;;;;;;;;;;5031429;28;20535;-70
2022/03/22 14:05:08;;;;;;;17.40;1.83;;;;;;;;;;5038150;28;21003;-69
2022/03/22 14:07:36;;;;;;;17.63;3.20;;;;;;;;;;5071554;28;20798;-69
2022/03/22 14:10:04;;;;;;;17.03;2.37;;;;;;;;;;5071068;28;20867;-70
2022/03/22 14:12:32;;;;;;;12.20;1.70;;;;;;;;;;5070974;28;20554;-70
2022/03/22 14:14:59;;;;;;;12.93;1.63;;;;;;;;;;5070985;28;20461;-70
2022/03/22 14:17:28;;;;;;;17.97;2.10;;;;;;;;;;5071115;28;20449;-70
2022/03/22 14:19:55;;;;;;;16.50;2.67;;;;;;;;;;5070888;28;20446;-70
2022/03/22 14:22:23;;;;;;;14.80;2.03;;;;;;;;;;5070854;28;21000;-69
2022/03/22 14:24:50;;;;;;;25.50;2.60;;;;;;;;;;5070812;28;20455;-70
2022/03/22 14:27:19;;;;;;;24.67;3.00;;;;;;;;;;5070742;28;20454;-70
2022/03/22 14:29:46;;;;;;;18.27;2.00;;;;;;;;;;5070429;28;20453;-70
2022/03/22 14:32:14;;;;;;;15.17;2.43;;;;;;;;;;5070645;28;20489;-70
2022/03/22 14:37:29;;;;;;;28.60;2.50;;;;;;;;;;5070666;28;20957;-69
2022/03/22 14:39:56;;;;;;;19.13;2.03;;;;;;;;;;5070522;28;20462;-69
2022/03/22 14:42:25;;;;;;;15.30;2.50;;;;;;;;;;5070587;28;20959;-70
2022/03/22 14:44:53;;;;;;;13.73;2.20;;;;;;;;;;5070697;28;20477;-70
2022/03/22 14:47:20;;;;;;;18.37;2.10;;;;;;;;;;5070338;28;20457;-70
2022/03/22 14:49:49;;;;;;;15.30;2.20;;;;;;;;;;5070512;28;20465;-70
2022/03/22 14:55:03;;;;;;;16.93;3.97;;;;;;;;;;5070592;28;20792;-70
2022/03/22 15:00:16;;;;;;;12.83;1.80;;;;;;;;;;5070584;28;20434;-70
2022/03/22 15:02:44;;;;;;;12.90;2.50;;;;;;;;;;5070389;28;21034;-70
2022/03/22 15:07:55;;;;;;;26.17;2.63;;;;;;;;;;5070028;28;20475;-70
2022/03/22 15:10:24;;;;;;;20.03;3.13;;;;;;;;;;5070328;28;20452;-70
2022/03/22 15:12:51;;;;;;;13.93;1.83;;;;;;;;;;5070182;28;20944;-70
2022/03/22 15:15:19;;;;;;;22.10;2.20;;;;;;;;;;5070443;28;21040;-69
2022/03/22 15:17:47;;;;;;;13.70;1.53;;;;;;;;;;5070441;28;20467;-70
2022/03/22 15:20:16;;;;;;;16.87;2.00;;;;;;;;;;5070454;28;21004;-70
2022/03/22 15:22:44;;;;;;;12.90;1.67;;;;;;;;;;5070328;28;20810;-70
2022/03/22 15:25:11;;;;;;;13.27;1.70;;;;;;;;;;5069913;28;20453;-70